sensor_id;sensor_type;location;lat;lon;timestamp;temperature;humidity
10294;DHT22;5192;50.328;7.610;2023-02-13T00:00:46;7.70;48.50
10294;DHT22;5192;50.328;7.610;2023-02-13T00:03:12;7.70;48.80
10294;DHT22;5192;50.328;7.610;2023-02-13T00:05:39;7.70;48.90
10294;DHT22;5192;50.328;7.610;2023-02-13T00:08:06;7.70;48.10
10294;DHT22;5192;50.328;7.610;2023-02-13T00:10:32;7.70;47.30
10294;DHT22;5192;50.328;7.610;2023-02-13T00:12:59;7.70;47.20
10294;DHT22;5192;50.328;7.610;2023-02-13T00:15:27;7.70;47.30
10294;DHT22;5192;50.328;7.610;2023-02-13T00:17:55;7.70;47.50
10294;DHT22;5192;50.328;7.610;2023-02-13T00:20:21;7.70;47.50
10294;DHT22;5192;50.328;7.610;2023-02-13T00:22:48;7.70;48.00
10294;DHT22;5192;50.328;7.610;2023-02-13T00:25:15;7.70;48.40
10294;DHT22;5192;50.328;7.610;2023-02-13T00:27:42;7.70;47.70
10294;DHT22;5192;50.328;7.610;2023-02-13T00:30:09;7.70;48.20
10294;DHT22;5192;50.328;7.610;2023-02-13T00:32:36;7.70;48.00
10294;DHT22;5192;50.328;7.610;2023-02-13T00:35:03;7.70;47.60
10294;DHT22;5192;50.328;7.610;2023-02-13T00:37:30;7.70;47.50
10294;DHT22;5192;50.328;7.610;2023-02-13T00:39:57;7.70;46.50
10294;DHT22;5192;50.328;7.610;2023-02-13T00:42:26;7.70;46.50
10294;DHT22;5192;50.328;7.610;2023-02-13T00:44:55;7.70;46.70
10294;DHT22;5192;50.328;7.610;2023-02-13T00:47:22;7.70;46.90
10294;DHT22;5192;50.328;7.610;2023-02-13T00:49:50;7.70;47.10
10294;DHT22;5192;50.328;7.610;2023-02-13T00:52:18;7.70;46.70
10294;DHT22;5192;50.328;7.610;2023-02-13T00:54:46;7.60;46.90
10294;DHT22;5192;50.328;7.610;2023-02-13T00:57:13;7.70;46.70
10294;DHT22;5192;50.328;7.610;2023-02-13T00:59:40;7.70;46.30
10294;DHT22;5192;50.328;7.610;2023-02-13T01:02:07;7.70;46.30
10294;DHT22;5192;50.328;7.610;2023-02-13T01:04:33;7.60;46.40
10294;DHT22;5192;50.328;7.610;2023-02-13T01:07:01;7.70;46.50
10294;DHT22;5192;50.328;7.610;2023-02-13T01:09:28;7.60;47.00
10294;DHT22;5192;50.328;7.610;2023-02-13T01:11:55;7.60;47.00
10294;DHT22;5192;50.328;7.610;2023-02-13T01:14:22;7.60;46.80
10294;DHT22;5192;50.328;7.610;2023-02-13T01:16:48;7.60;47.00
10294;DHT22;5192;50.328;7.610;2023-02-13T01:19:17;7.70;46.70
10294;DHT22;5192;50.328;7.610;2023-02-13T01:21:47;7.60;46.70
10294;DHT22;5192;50.328;7.610;2023-02-13T01:24:14;7.60;46.50
10294;DHT22;5192;50.328;7.610;2023-02-13T01:26:44;7.50;46.30
10294;DHT22;5192;50.328;7.610;2023-02-13T01:29:14;7.60;47.10
10294;DHT22;5192;50.328;7.610;2023-02-13T01:31:42;7.50;47.50
10294;DHT22;5192;50.328;7.610;2023-02-13T01:34:10;7.60;46.70
10294;DHT22;5192;50.328;7.610;2023-02-13T01:36:38;7.60;46.50
10294;DHT22;5192;50.328;7.610;2023-02-13T01:39:03;7.60;46.60
10294;DHT22;5192;50.328;7.610;2023-02-13T01:41:30;7.60;46.40
10294;DHT22;5192;50.328;7.610;2023-02-13T01:43:59;7.60;46.60
10294;DHT22;5192;50.328;7.610;2023-02-13T01:46:38;7.50;46.50
10294;DHT22;5192;50.328;7.610;2023-02-13T01:49:24;7.40;46.50
10294;DHT22;5192;50.328;7.610;2023-02-13T01:51:56;7.40;46.30
10294;DHT22;5192;50.328;7.610;2023-02-13T01:54:26;7.40;46.00
10294;DHT22;5192;50.328;7.610;2023-02-13T01:57:23;7.40;44.90
10294;DHT22;5192;50.328;7.610;2023-02-13T02:00:10;7.40;43.70
10294;DHT22;5192;50.328;7.610;2023-02-13T02:02:43;7.40;44.10
10294;DHT22;5192;50.328;7.610;2023-02-13T02:05:14;7.40;44.30
10294;DHT22;5192;50.328;7.610;2023-02-13T02:07:47;7.40;41.80
10294;DHT22;5192;50.328;7.610;2023-02-13T02:10:33;7.30;41.10
10294;DHT22;5192;50.328;7.610;2023-02-13T02:13:18;7.30;41.70
10294;DHT22;5192;50.328;7.610;2023-02-13T02:15:46;7.30;41.80
10294;DHT22;5192;50.328;7.610;2023-02-13T02:18:21;7.40;41.70
10294;DHT22;5192;50.328;7.610;2023-02-13T02:21:14;7.30;42.10
10294;DHT22;5192;50.328;7.610;2023-02-13T02:32:51;7.10;43.20
10294;DHT22;5192;50.328;7.610;2023-02-13T02:35:42;7.00;43.40
10294;DHT22;5192;50.328;7.610;2023-02-13T02:38:46;6.90;43.70
10294;DHT22;5192;50.328;7.610;2023-02-13T02:42:14;6.80;44.40
10294;DHT22;5192;50.328;7.610;2023-02-13T02:45:07;6.80;45.00
10294;DHT22;5192;50.328;7.610;2023-02-13T02:48:02;6.70;47.00
10294;DHT22;5192;50.328;7.610;2023-02-13T02:50:57;6.70;48.00
10294;DHT22;5192;50.328;7.610;2023-02-13T02:54:03;6.50;48.20
10294;DHT22;5192;50.328;7.610;2023-02-13T02:57:17;6.50;49.30
10294;DHT22;5192;50.328;7.610;2023-02-13T02:59:48;6.40;49.30
10294;DHT22;5192;50.328;7.610;2023-02-13T03:02:36;6.40;49.70
10294;DHT22;5192;50.328;7.610;2023-02-13T03:05:26;6.30;50.50
10294;DHT22;5192;50.328;7.610;2023-02-13T03:08:28;6.40;50.30
10294;DHT22;5192;50.328;7.610;2023-02-13T03:11:15;6.20;51.10
10294;DHT22;5192;50.328;7.610;2023-02-13T03:14:01;6.20;51.80
10294;DHT22;5192;50.328;7.610;2023-02-13T03:16:31;6.20;52.60
10294;DHT22;5192;50.328;7.610;2023-02-13T03:23:33;6.10;53.50
10294;DHT22;5192;50.328;7.610;2023-02-13T03:25:50;5.90;54.40
10294;DHT22;5192;50.328;7.610;2023-02-13T03:34:29;5.80;57.10
10294;DHT22;5192;50.328;7.610;2023-02-13T03:37:27;5.80;57.70
10294;DHT22;5192;50.328;7.610;2023-02-13T03:40:30;5.80;57.50
10294;DHT22;5192;50.328;7.610;2023-02-13T03:43:10;5.80;58.10
10294;DHT22;5192;50.328;7.610;2023-02-13T03:45:48;5.80;58.10
10294;DHT22;5192;50.328;7.610;2023-02-13T03:48:38;5.80;58.10
10294;DHT22;5192;50.328;7.610;2023-02-13T03:54:20;5.80;59.90
10294;DHT22;5192;50.328;7.610;2023-02-13T03:56:53;5.90;58.80
10294;DHT22;5192;50.328;7.610;2023-02-13T03:59:40;5.90;58.70
10294;DHT22;5192;50.328;7.610;2023-02-13T04:02:13;6.00;56.40
10294;DHT22;5192;50.328;7.610;2023-02-13T04:05:15;6.00;55.10
10294;DHT22;5192;50.328;7.610;2023-02-13T04:07:42;6.00;54.30
10294;DHT22;5192;50.328;7.610;2023-02-13T04:10:13;6.00;52.90
10294;DHT22;5192;50.328;7.610;2023-02-13T04:18:30;6.00;51.70
10294;DHT22;5192;50.328;7.610;2023-02-13T04:21:07;6.10;51.70
10294;DHT22;5192;50.328;7.610;2023-02-13T04:23:34;6.10;50.90
10294;DHT22;5192;50.328;7.610;2023-02-13T04:26:02;6.10;50.10
10294;DHT22;5192;50.328;7.610;2023-02-13T04:28:30;6.10;48.80
10294;DHT22;5192;50.328;7.610;2023-02-13T04:30:57;6.10;46.70
10294;DHT22;5192;50.328;7.610;2023-02-13T04:33:24;6.00;46.80
10294;DHT22;5192;50.328;7.610;2023-02-13T04:35:51;6.10;46.50
10294;DHT22;5192;50.328;7.610;2023-02-13T04:38:17;6.00;46.80
10294;DHT22;5192;50.328;7.610;2023-02-13T04:40:45;6.00;47.20
10294;DHT22;5192;50.328;7.610;2023-02-13T04:43:11;5.90;47.40
10294;DHT22;5192;50.328;7.610;2023-02-13T04:45:40;6.00;47.40
10294;DHT22;5192;50.328;7.610;2023-02-13T04:48:07;6.00;47.00
10294;DHT22;5192;50.328;7.610;2023-02-13T04:50:34;5.90;46.60
10294;DHT22;5192;50.328;7.610;2023-02-13T04:53:01;5.90;47.00
10294;DHT22;5192;50.328;7.610;2023-02-13T04:55:27;6.00;47.40
10294;DHT22;5192;50.328;7.610;2023-02-13T04:57:54;5.80;47.50
10294;DHT22;5192;50.328;7.610;2023-02-13T05:00:26;5.80;47.80
10294;DHT22;5192;50.328;7.610;2023-02-13T05:02:53;5.70;47.90
10294;DHT22;5192;50.328;7.610;2023-02-13T05:05:27;5.70;48.20
10294;DHT22;5192;50.328;7.610;2023-02-13T05:07:53;5.60;48.10
10294;DHT22;5192;50.328;7.610;2023-02-13T05:10:22;5.60;48.30
10294;DHT22;5192;50.328;7.610;2023-02-13T05:12:49;5.40;48.70
10294;DHT22;5192;50.328;7.610;2023-02-13T05:15:17;5.30;50.20
10294;DHT22;5192;50.328;7.610;2023-02-13T05:17:46;5.20;50.70
10294;DHT22;5192;50.328;7.610;2023-02-13T05:20:13;5.10;50.20
10294;DHT22;5192;50.328;7.610;2023-02-13T05:22:48;5.10;49.70
10294;DHT22;5192;50.328;7.610;2023-02-13T05:25:35;4.80;49.30
10294;DHT22;5192;50.328;7.610;2023-02-13T05:28:02;4.60;50.20
10294;DHT22;5192;50.328;7.610;2023-02-13T05:30:30;4.50;51.00
10294;DHT22;5192;50.328;7.610;2023-02-13T05:32:57;4.30;51.60
10294;DHT22;5192;50.328;7.610;2023-02-13T05:35:25;4.10;54.00
10294;DHT22;5192;50.328;7.610;2023-02-13T05:37:53;3.90;55.70
10294;DHT22;5192;50.328;7.610;2023-02-13T05:40:20;3.80;56.80
10294;DHT22;5192;50.328;7.610;2023-02-13T05:42:48;3.70;58.10
10294;DHT22;5192;50.328;7.610;2023-02-13T05:45:20;3.60;59.00
10294;DHT22;5192;50.328;7.610;2023-02-13T05:47:45;3.50;59.60
10294;DHT22;5192;50.328;7.610;2023-02-13T05:50:11;3.50;60.30
10294;DHT22;5192;50.328;7.610;2023-02-13T05:52:39;3.40;60.70
10294;DHT22;5192;50.328;7.610;2023-02-13T05:55:06;3.30;61.60
10294;DHT22;5192;50.328;7.610;2023-02-13T05:57:34;3.30;62.30
10294;DHT22;5192;50.328;7.610;2023-02-13T06:00:01;3.30;62.80
10294;DHT22;5192;50.328;7.610;2023-02-13T06:02:28;3.10;63.40
10294;DHT22;5192;50.328;7.610;2023-02-13T06:04:56;3.10;64.20
10294;DHT22;5192;50.328;7.610;2023-02-13T06:07:24;3.00;65.50
10294;DHT22;5192;50.328;7.610;2023-02-13T06:09:52;3.00;66.20
10294;DHT22;5192;50.328;7.610;2023-02-13T06:12:18;3.00;66.50
10294;DHT22;5192;50.328;7.610;2023-02-13T06:14:46;2.90;67.00
10294;DHT22;5192;50.328;7.610;2023-02-13T06:17:11;2.90;67.20
10294;DHT22;5192;50.328;7.610;2023-02-13T06:19:37;2.90;67.70
10294;DHT22;5192;50.328;7.610;2023-02-13T06:22:04;2.80;68.20
10294;DHT22;5192;50.328;7.610;2023-02-13T06:24:30;2.80;68.50
10294;DHT22;5192;50.328;7.610;2023-02-13T06:26:58;2.70;69.10
10294;DHT22;5192;50.328;7.610;2023-02-13T06:29:26;2.60;69.00
10294;DHT22;5192;50.328;7.610;2023-02-13T06:31:54;2.60;69.60
10294;DHT22;5192;50.328;7.610;2023-02-13T06:34:22;2.60;70.10
10294;DHT22;5192;50.328;7.610;2023-02-13T06:36:48;2.50;71.00
10294;DHT22;5192;50.328;7.610;2023-02-13T06:39:17;2.60;71.40
10294;DHT22;5192;50.328;7.610;2023-02-13T06:41:44;2.50;71.80
10294;DHT22;5192;50.328;7.610;2023-02-13T06:44:10;2.50;72.20
10294;DHT22;5192;50.328;7.610;2023-02-13T06:46:38;2.50;72.70
10294;DHT22;5192;50.328;7.610;2023-02-13T06:49:05;2.40;73.00
10294;DHT22;5192;50.328;7.610;2023-02-13T06:51:33;2.40;73.20
10294;DHT22;5192;50.328;7.610;2023-02-13T06:54:01;2.40;73.60
10294;DHT22;5192;50.328;7.610;2023-02-13T06:56:29;2.40;73.80
10294;DHT22;5192;50.328;7.610;2023-02-13T06:58:56;2.40;74.20
10294;DHT22;5192;50.328;7.610;2023-02-13T07:01:23;2.40;74.70
10294;DHT22;5192;50.328;7.610;2023-02-13T07:03:51;2.40;75.00
10294;DHT22;5192;50.328;7.610;2023-02-13T07:06:19;2.50;75.50
10294;DHT22;5192;50.328;7.610;2023-02-13T07:08:46;2.50;75.60
10294;DHT22;5192;50.328;7.610;2023-02-13T07:11:19;2.50;75.50
10294;DHT22;5192;50.328;7.610;2023-02-13T07:13:45;2.40;75.60
10294;DHT22;5192;50.328;7.610;2023-02-13T07:16:11;2.50;76.00
10294;DHT22;5192;50.328;7.610;2023-02-13T07:18:38;2.60;75.90
10294;DHT22;5192;50.328;7.610;2023-02-13T07:21:04;2.50;75.90
10294;DHT22;5192;50.328;7.610;2023-02-13T07:23:31;2.40;75.90
10294;DHT22;5192;50.328;7.610;2023-02-13T07:26:01;2.40;76.20
10294;DHT22;5192;50.328;7.610;2023-02-13T07:28:29;2.40;76.10
10294;DHT22;5192;50.328;7.610;2023-02-13T07:31:05;2.40;76.20
10294;DHT22;5192;50.328;7.610;2023-02-13T07:33:33;2.40;76.30
10294;DHT22;5192;50.328;7.610;2023-02-13T07:36:00;2.40;76.30
10294;DHT22;5192;50.328;7.610;2023-02-13T07:38:29;2.40;76.30
10294;DHT22;5192;50.328;7.610;2023-02-13T07:41:00;2.30;76.60
10294;DHT22;5192;50.328;7.610;2023-02-13T07:43:26;2.30;77.10
10294;DHT22;5192;50.328;7.610;2023-02-13T07:45:53;2.40;77.60
10294;DHT22;5192;50.328;7.610;2023-02-13T07:48:23;2.40;77.90
10294;DHT22;5192;50.328;7.610;2023-02-13T07:51:02;2.40;78.30
10294;DHT22;5192;50.328;7.610;2023-02-13T07:53:29;2.50;78.60
10294;DHT22;5192;50.328;7.610;2023-02-13T07:55:56;2.50;78.70
10294;DHT22;5192;50.328;7.610;2023-02-13T07:58:24;2.50;78.90
10294;DHT22;5192;50.328;7.610;2023-02-13T08:00:52;2.50;79.00
10294;DHT22;5192;50.328;7.610;2023-02-13T08:03:19;2.50;79.30
10294;DHT22;5192;50.328;7.610;2023-02-13T08:05:48;2.60;79.40
10294;DHT22;5192;50.328;7.610;2023-02-13T08:08:15;2.40;79.30
10294;DHT22;5192;50.328;7.610;2023-02-13T08:10:46;2.60;79.60
10294;DHT22;5192;50.328;7.610;2023-02-13T08:13:32;2.60;79.70
10294;DHT22;5192;50.328;7.610;2023-02-13T08:15:59;2.60;79.70
10294;DHT22;5192;50.328;7.610;2023-02-13T08:18:26;2.60;79.80
10294;DHT22;5192;50.328;7.610;2023-02-13T08:20:53;2.60;79.90
10294;DHT22;5192;50.328;7.610;2023-02-13T08:23:20;2.70;80.20
10294;DHT22;5192;50.328;7.610;2023-02-13T08:25:47;2.70;80.50
10294;DHT22;5192;50.328;7.610;2023-02-13T08:28:19;2.80;80.60
10294;DHT22;5192;50.328;7.610;2023-02-13T08:30:45;2.80;80.90
10294;DHT22;5192;50.328;7.610;2023-02-13T08:33:14;2.90;81.30
10294;DHT22;5192;50.328;7.610;2023-02-13T08:35:41;3.00;81.30
10294;DHT22;5192;50.328;7.610;2023-02-13T08:38:06;3.00;81.70
10294;DHT22;5192;50.328;7.610;2023-02-13T08:40:34;3.10;82.10
10294;DHT22;5192;50.328;7.610;2023-02-13T08:43:04;3.20;82.50
10294;DHT22;5192;50.328;7.610;2023-02-13T08:45:31;3.30;82.80
10294;DHT22;5192;50.328;7.610;2023-02-13T08:48:01;3.40;83.10
10294;DHT22;5192;50.328;7.610;2023-02-13T08:50:30;3.50;83.50
10294;DHT22;5192;50.328;7.610;2023-02-13T08:52:59;3.60;83.70
10294;DHT22;5192;50.328;7.610;2023-02-13T08:55:26;3.70;84.00
10294;DHT22;5192;50.328;7.610;2023-02-13T08:57:54;3.80;84.20
10294;DHT22;5192;50.328;7.610;2023-02-13T09:00:22;3.90;84.60
10294;DHT22;5192;50.328;7.610;2023-02-13T09:02:51;4.00;84.70
10294;DHT22;5192;50.328;7.610;2023-02-13T09:05:19;4.20;84.80
10294;DHT22;5192;50.328;7.610;2023-02-13T09:07:46;4.20;84.30
10294;DHT22;5192;50.328;7.610;2023-02-13T09:10:11;4.30;83.80
10294;DHT22;5192;50.328;7.610;2023-02-13T09:12:39;4.40;83.80
10294;DHT22;5192;50.328;7.610;2023-02-13T09:15:08;4.40;83.10
10294;DHT22;5192;50.328;7.610;2023-02-13T09:17:34;4.50;79.00
10294;DHT22;5192;50.328;7.610;2023-02-13T09:20:01;4.50;77.00
10294;DHT22;5192;50.328;7.610;2023-02-13T09:22:27;4.60;74.30
10294;DHT22;5192;50.328;7.610;2023-02-13T09:24:55;4.70;70.30
10294;DHT22;5192;50.328;7.610;2023-02-13T09:27:25;4.70;71.80
10294;DHT22;5192;50.328;7.610;2023-02-13T09:29:55;4.90;70.70
10294;DHT22;5192;50.328;7.610;2023-02-13T09:32:22;5.00;70.00
10294;DHT22;5192;50.328;7.610;2023-02-13T09:34:49;5.20;70.40
10294;DHT22;5192;50.328;7.610;2023-02-13T09:37:16;5.30;68.80
10294;DHT22;5192;50.328;7.610;2023-02-13T09:39:43;5.40;67.20
10294;DHT22;5192;50.328;7.610;2023-02-13T09:42:27;5.60;62.20
10294;DHT22;5192;50.328;7.610;2023-02-13T09:45:02;5.70;56.80
10294;DHT22;5192;50.328;7.610;2023-02-13T09:47:51;5.90;53.80
10294;DHT22;5192;50.328;7.610;2023-02-13T09:50:35;6.00;52.60
10294;DHT22;5192;50.328;7.610;2023-02-13T09:53:04;6.10;49.60
10294;DHT22;5192;50.328;7.610;2023-02-13T10:01:29;6.40;42.80
10294;DHT22;5192;50.328;7.610;2023-02-13T10:07:44;6.60;39.50
10294;DHT22;5192;50.328;7.610;2023-02-13T10:14:18;6.80;38.80
10294;DHT22;5192;50.328;7.610;2023-02-13T10:17:00;6.80;37.80
10294;DHT22;5192;50.328;7.610;2023-02-13T10:19:51;6.90;38.50
10294;DHT22;5192;50.328;7.610;2023-02-13T10:22:43;7.00;36.80
10294;DHT22;5192;50.328;7.610;2023-02-13T10:25:51;7.10;35.40
10294;DHT22;5192;50.328;7.610;2023-02-13T10:28:33;7.20;35.80
10294;DHT22;5192;50.328;7.610;2023-02-13T10:31:11;7.30;34.10
10294;DHT22;5192;50.328;7.610;2023-02-13T10:33:49;7.40;33.10
10294;DHT22;5192;50.328;7.610;2023-02-13T10:36:22;7.40;32.40
10294;DHT22;5192;50.328;7.610;2023-02-13T10:39:27;7.50;31.00
10294;DHT22;5192;50.328;7.610;2023-02-13T10:45:02;7.60;31.00
10294;DHT22;5192;50.328;7.610;2023-02-13T10:47:57;7.80;31.00
10294;DHT22;5192;50.328;7.610;2023-02-13T10:59:50;8.20;25.10
10294;DHT22;5192;50.328;7.610;2023-02-13T11:02:44;8.30;24.50
10294;DHT22;5192;50.328;7.610;2023-02-13T11:05:24;8.40;22.00
10294;DHT22;5192;50.328;7.610;2023-02-13T11:07:52;8.40;23.40
10294;DHT22;5192;50.328;7.610;2023-02-13T11:10:36;8.60;22.10
10294;DHT22;5192;50.328;7.610;2023-02-13T11:13:19;8.70;21.60
10294;DHT22;5192;50.328;7.610;2023-02-13T11:16:05;8.80;23.20
10294;DHT22;5192;50.328;7.610;2023-02-13T11:18:34;8.90;20.40
10294;DHT22;5192;50.328;7.610;2023-02-13T11:21:19;9.10;18.80
10294;DHT22;5192;50.328;7.610;2023-02-13T11:23:52;9.20;18.00
10294;DHT22;5192;50.328;7.610;2023-02-13T11:26:35;9.20;17.50
10294;DHT22;5192;50.328;7.610;2023-02-13T11:32:22;9.60;13.30
10294;DHT22;5192;50.328;7.610;2023-02-13T11:34:49;9.60;12.80
10294;DHT22;5192;50.328;7.610;2023-02-13T11:37:29;9.70;12.70
10294;DHT22;5192;50.328;7.610;2023-02-13T11:39:59;10.10;11.50
10294;DHT22;5192;50.328;7.610;2023-02-13T11:42:50;10.30;10.50
10294;DHT22;5192;50.328;7.610;2023-02-13T11:45:22;10.40;7.80
10294;DHT22;5192;50.328;7.610;2023-02-13T11:47:56;10.90;4.00
10294;DHT22;5192;50.328;7.610;2023-02-13T11:50:40;11.50;1.00
10294;DHT22;5192;50.328;7.610;2023-02-13T11:53:20;11.50;1.00
10294;DHT22;5192;50.328;7.610;2023-02-13T11:56:11;11.90;1.00
10294;DHT22;5192;50.328;7.610;2023-02-13T11:58:42;11.80;1.00
10294;DHT22;5192;50.328;7.610;2023-02-13T12:04:06;12.60;1.00
10294;DHT22;5192;50.328;7.610;2023-02-13T12:07:03;13.40;1.00
10294;DHT22;5192;50.328;7.610;2023-02-13T12:09:33;13.00;1.00
10294;DHT22;5192;50.328;7.610;2023-02-13T12:12:01;13.20;1.00
10294;DHT22;5192;50.328;7.610;2023-02-13T12:14:37;14.10;1.00
10294;DHT22;5192;50.328;7.610;2023-02-13T12:17:06;14.50;1.00
10294;DHT22;5192;50.328;7.610;2023-02-13T12:19:49;15.00;1.00
10294;DHT22;5192;50.328;7.610;2023-02-13T12:25:30;15.10;1.00
10294;DHT22;5192;50.328;7.610;2023-02-13T12:28:35;14.90;1.00
10294;DHT22;5192;50.328;7.610;2023-02-13T12:34:25;15.10;1.00
10294;DHT22;5192;50.328;7.610;2023-02-13T12:45:40;14.10;1.00
10294;DHT22;5192;50.328;7.610;2023-02-13T12:54:15;15.30;1.00
10294;DHT22;5192;50.328;7.610;2023-02-13T13:00:30;15.30;1.00
10294;DHT22;5192;50.328;7.610;2023-02-13T13:03:20;15.60;1.00
10294;DHT22;5192;50.328;7.610;2023-02-13T13:06:19;16.20;1.00
10294;DHT22;5192;50.328;7.610;2023-02-13T13:12:13;17.40;1.00
10294;DHT22;5192;50.328;7.610;2023-02-13T13:23:24;15.90;1.00
10294;DHT22;5192;50.328;7.610;2023-02-13T13:26:17;16.10;1.00
10294;DHT22;5192;50.328;7.610;2023-02-13T13:28:55;15.70;1.00
10294;DHT22;5192;50.328;7.610;2023-02-13T13:31:28;15.80;1.00
10294;DHT22;5192;50.328;7.610;2023-02-13T13:33:59;16.40;1.00
10294;DHT22;5192;50.328;7.610;2023-02-13T13:37:03;16.80;1.00
10294;DHT22;5192;50.328;7.610;2023-02-13T13:39:57;17.00;1.00
10294;DHT22;5192;50.328;7.610;2023-02-13T13:42:40;17.50;1.00
10294;DHT22;5192;50.328;7.610;2023-02-13T13:48:42;17.40;1.00
10294;DHT22;5192;50.328;7.610;2023-02-13T13:51:19;17.70;1.00
10294;DHT22;5192;50.328;7.610;2023-02-13T13:59:55;18.40;1.00
10294;DHT22;5192;50.328;7.610;2023-02-13T14:02:44;17.10;1.00
10294;DHT22;5192;50.328;7.610;2023-02-13T14:05:31;17.80;1.00
10294;DHT22;5192;50.328;7.610;2023-02-13T14:08:51;17.20;1.00
10294;DHT22;5192;50.328;7.610;2023-02-13T14:11:04;16.50;1.00
10294;DHT22;5192;50.328;7.610;2023-02-13T14:13:37;17.20;1.00
10294;DHT22;5192;50.328;7.610;2023-02-13T14:16:13;16.80;1.00
10294;DHT22;5192;50.328;7.610;2023-02-13T14:18:56;17.50;1.00
10294;DHT22;5192;50.328;7.610;2023-02-13T14:21:24;17.40;1.00
10294;DHT22;5192;50.328;7.610;2023-02-13T14:23:51;18.20;1.00
10294;DHT22;5192;50.328;7.610;2023-02-13T14:26:35;18.00;1.00
10294;DHT22;5192;50.328;7.610;2023-02-13T14:32:16;15.80;1.00
10294;DHT22;5192;50.328;7.610;2023-02-13T14:34:51;16.30;1.00
10294;DHT22;5192;50.328;7.610;2023-02-13T14:37:21;16.90;1.00
10294;DHT22;5192;50.328;7.610;2023-02-13T14:48:56;16.10;1.00
10294;DHT22;5192;50.328;7.610;2023-02-13T14:51:54;16.10;1.00
10294;DHT22;5192;50.328;7.610;2023-02-13T14:54:52;16.10;1.00
10294;DHT22;5192;50.328;7.610;2023-02-13T14:57:38;15.00;1.00
10294;DHT22;5192;50.328;7.610;2023-02-13T15:00:27;15.40;1.00
10294;DHT22;5192;50.328;7.610;2023-02-13T15:03:03;15.10;1.00
10294;DHT22;5192;50.328;7.610;2023-02-13T15:05:34;14.60;1.00
10294;DHT22;5192;50.328;7.610;2023-02-13T15:08:23;14.90;1.00
10294;DHT22;5192;50.328;7.610;2023-02-13T15:10:53;14.80;1.00
10294;DHT22;5192;50.328;7.610;2023-02-13T15:13:24;14.50;1.00
10294;DHT22;5192;50.328;7.610;2023-02-13T15:16:13;14.40;1.00
10294;DHT22;5192;50.328;7.610;2023-02-13T15:18:48;14.30;1.00
10294;DHT22;5192;50.328;7.610;2023-02-13T15:21:21;14.30;1.00
10294;DHT22;5192;50.328;7.610;2023-02-13T15:23:54;14.20;1.00
10294;DHT22;5192;50.328;7.610;2023-02-13T15:26:25;13.90;1.00
10294;DHT22;5192;50.328;7.610;2023-02-13T15:29:13;13.80;1.00
10294;DHT22;5192;50.328;7.610;2023-02-13T15:31:41;13.70;1.00
10294;DHT22;5192;50.328;7.610;2023-02-13T15:34:31;13.60;1.00
10294;DHT22;5192;50.328;7.610;2023-02-13T15:37:03;13.70;1.00
10294;DHT22;5192;50.328;7.610;2023-02-13T15:39:31;13.80;1.00
10294;DHT22;5192;50.328;7.610;2023-02-13T15:42:02;13.80;1.00
10294;DHT22;5192;50.328;7.610;2023-02-13T15:44:34;13.60;1.00
10294;DHT22;5192;50.328;7.610;2023-02-13T15:50:29;13.60;1.00
10294;DHT22;5192;50.328;7.610;2023-02-13T15:52:58;13.30;1.00
10294;DHT22;5192;50.328;7.610;2023-02-13T15:55:29;13.30;1.00
10294;DHT22;5192;50.328;7.610;2023-02-13T15:57:59;13.10;1.00
10294;DHT22;5192;50.328;7.610;2023-02-13T16:00:36;13.10;1.00
10294;DHT22;5192;50.328;7.610;2023-02-13T16:03:06;12.90;1.00
10294;DHT22;5192;50.328;7.610;2023-02-13T16:05:40;12.80;1.00
10294;DHT22;5192;50.328;7.610;2023-02-13T16:08:28;12.90;1.00
10294;DHT22;5192;50.328;7.610;2023-02-13T16:11:28;12.70;1.00
10294;DHT22;5192;50.328;7.610;2023-02-13T16:14:20;12.70;1.00
10294;DHT22;5192;50.328;7.610;2023-02-13T16:17:16;12.60;1.00
10294;DHT22;5192;50.328;7.610;2023-02-13T16:22:52;12.40;1.00
10294;DHT22;5192;50.328;7.610;2023-02-13T16:25:32;12.40;1.00
10294;DHT22;5192;50.328;7.610;2023-02-13T16:28:23;12.20;1.00
10294;DHT22;5192;50.328;7.610;2023-02-13T16:30:56;12.00;1.00
10294;DHT22;5192;50.328;7.610;2023-02-13T16:33:45;11.90;1.00
10294;DHT22;5192;50.328;7.610;2023-02-13T16:39:14;11.50;1.00
10294;DHT22;5192;50.328;7.610;2023-02-13T16:41:44;11.30;1.00
10294;DHT22;5192;50.328;7.610;2023-02-13T16:44:29;11.20;1.00
10294;DHT22;5192;50.328;7.610;2023-02-13T16:47:20;11.00;1.00
10294;DHT22;5192;50.328;7.610;2023-02-13T16:50:01;10.80;1.00
10294;DHT22;5192;50.328;7.610;2023-02-13T16:52:26;10.60;1.00
10294;DHT22;5192;50.328;7.610;2023-02-13T16:54:56;10.50;1.00
10294;DHT22;5192;50.328;7.610;2023-02-13T16:57:33;10.30;1.00
10294;DHT22;5192;50.328;7.610;2023-02-13T17:00:38;10.20;1.00
10294;DHT22;5192;50.328;7.610;2023-02-13T17:02:57;9.90;1.00
10294;DHT22;5192;50.328;7.610;2023-02-13T17:05:26;9.80;1.00
10294;DHT22;5192;50.328;7.610;2023-02-13T17:07:55;9.60;1.00
10294;DHT22;5192;50.328;7.610;2023-02-13T17:10:33;9.50;1.00
10294;DHT22;5192;50.328;7.610;2023-02-13T17:13:20;9.40;1.00
10294;DHT22;5192;50.328;7.610;2023-02-13T17:15:49;9.20;1.00
10294;DHT22;5192;50.328;7.610;2023-02-13T17:18:18;9.10;1.00
10294;DHT22;5192;50.328;7.610;2023-02-13T17:20:46;9.00;1.00
10294;DHT22;5192;50.328;7.610;2023-02-13T17:23:17;8.90;1.00
10294;DHT22;5192;50.328;7.610;2023-02-13T17:25:45;8.80;1.00
10294;DHT22;5192;50.328;7.610;2023-02-13T17:28:16;8.70;1.00
10294;DHT22;5192;50.328;7.610;2023-02-13T17:30:45;8.60;1.00
10294;DHT22;5192;50.328;7.610;2023-02-13T17:33:20;8.50;1.60
10294;DHT22;5192;50.328;7.610;2023-02-13T17:35:49;8.40;2.60
10294;DHT22;5192;50.328;7.610;2023-02-13T17:38:16;8.40;3.40
10294;DHT22;5192;50.328;7.610;2023-02-13T17:40:44;8.40;3.60
10294;DHT22;5192;50.328;7.610;2023-02-13T17:43:11;8.30;4.10
10294;DHT22;5192;50.328;7.610;2023-02-13T17:45:40;8.20;4.60
10294;DHT22;5192;50.328;7.610;2023-02-13T17:48:07;8.20;5.50
10294;DHT22;5192;50.328;7.610;2023-02-13T17:50:35;8.10;6.50
10294;DHT22;5192;50.328;7.610;2023-02-13T17:53:06;8.00;7.50
10294;DHT22;5192;50.328;7.610;2023-02-13T17:55:34;7.90;8.30
10294;DHT22;5192;50.328;7.610;2023-02-13T17:58:00;7.80;9.20
10294;DHT22;5192;50.328;7.610;2023-02-13T18:00:30;7.80;9.80
10294;DHT22;5192;50.328;7.610;2023-02-13T18:02:59;7.70;10.90
10294;DHT22;5192;50.328;7.610;2023-02-13T18:05:29;7.70;11.60
10294;DHT22;5192;50.328;7.610;2023-02-13T18:07:59;7.70;12.20
10294;DHT22;5192;50.328;7.610;2023-02-13T18:10:34;7.60;12.30
10294;DHT22;5192;50.328;7.610;2023-02-13T18:13:02;7.60;12.30
10294;DHT22;5192;50.328;7.610;2023-02-13T18:15:44;7.50;12.60
10294;DHT22;5192;50.328;7.610;2023-02-13T18:18:11;7.40;13.40
10294;DHT22;5192;50.328;7.610;2023-02-13T18:20:40;7.30;14.10
10294;DHT22;5192;50.328;7.610;2023-02-13T18:23:07;7.30;14.90
10294;DHT22;5192;50.328;7.610;2023-02-13T18:25:34;7.20;15.80
10294;DHT22;5192;50.328;7.610;2023-02-13T18:28:00;7.40;16.30
10294;DHT22;5192;50.328;7.610;2023-02-13T18:30:28;7.20;16.50
10294;DHT22;5192;50.328;7.610;2023-02-13T18:33:00;7.10;16.90
10294;DHT22;5192;50.328;7.610;2023-02-13T18:35:31;7.00;17.60
10294;DHT22;5192;50.328;7.610;2023-02-13T18:37:58;6.90;18.30
10294;DHT22;5192;50.328;7.610;2023-02-13T18:40:26;6.80;19.00
10294;DHT22;5192;50.328;7.610;2023-02-13T18:42:53;6.80;19.50
10294;DHT22;5192;50.328;7.610;2023-02-13T18:45:21;6.70;20.30
10294;DHT22;5192;50.328;7.610;2023-02-13T18:47:49;6.60;21.00
10294;DHT22;5192;50.328;7.610;2023-02-13T18:50:16;6.60;21.70
10294;DHT22;5192;50.328;7.610;2023-02-13T18:52:44;6.60;22.20